Terminal Aerodrome Forecast
Issued by NWS

Home | Current Version | Previous Version | Text Only | Print | Product List | Glossary On
Versions: 1 2 3 4 5 6 7 8 9 10 11 12 13 14 15 16 17
000
FTAK31 PAJN 201100
TAFAWG
TAF
PAWG 201122Z 2012/2112 12015KT 5SM RA BR SCT015 OVC040
      WS020/14040KT
     FM201600 12015G22KT 3SM RA BR BKN015 OVC025 WS020/18035KT
     FM202000 15006KT 6SM -RA SCT015 OVC025
     FM210100 10005KT 4SM RA BR BKN015 OVC025
     FM210900 13010KT 3SM -RA BR BKN007 OVC015
      AMD LTD TO CLD VIS AND WIND 2012/2015=

USA.gov is the U.S. government's official web portal to all federal, state and local government web resources and services.